createdAt,value
2018-08-23T06:27:39.454Z,11.53
2018-08-23T06:30:08.736Z,10.23
2018-08-23T06:32:37.891Z,9.77
2018-08-23T06:35:06.635Z,9.43
2018-08-23T06:37:36.932Z,10.63
2018-08-23T06:40:06.301Z,10.45
2018-08-23T06:42:47.037Z,9.60
2018-08-23T06:50:17.021Z,9.77
2018-08-23T06:52:49.515Z,8.80
2018-08-23T06:55:23.473Z,8.80
2018-08-23T06:57:56.344Z,8.53
2018-08-23T07:00:26.466Z,8.13
2018-08-23T07:02:54.986Z,7.50
2018-08-23T07:05:23.640Z,7.60
2018-08-23T07:07:52.266Z,6.13
2018-08-23T07:10:21.415Z,6.53
2018-08-23T07:12:50.469Z,6.30
2018-08-23T07:15:19.068Z,6.50
2018-08-23T07:17:48.314Z,6.33
2018-08-23T07:20:18.250Z,5.80
2018-08-23T07:22:47.084Z,5.93
2018-08-23T07:25:18.665Z,5.78
2018-08-23T07:27:47.168Z,5.53
2018-08-23T07:30:18.909Z,5.15
2018-08-23T07:32:48.859Z,5.13
2018-08-23T07:35:18.240Z,5.40
2018-08-23T07:37:50.100Z,5.47
2018-08-23T07:40:20.485Z,5.43
2018-08-23T07:42:50.441Z,5.30
2018-08-23T07:45:18.902Z,5.20
2018-08-23T07:47:48.782Z,5.40
2018-08-23T07:50:17.518Z,5.17
2018-08-23T07:52:49.095Z,5.57
2018-08-23T07:55:17.688Z,5.13
2018-08-23T07:57:46.464Z,5.40
2018-08-23T08:05:33.010Z,5.20
2018-08-23T08:08:03.010Z,5.33
2018-08-23T08:10:34.103Z,5.03
2018-08-23T08:13:02.590Z,5.47
2018-08-23T08:15:31.031Z,5.13
2018-08-23T08:18:19.498Z,4.97
2018-08-23T08:20:54.520Z,4.70
2018-08-23T08:23:23.020Z,4.58
2018-08-23T08:25:52.058Z,4.40
2018-08-23T08:28:20.561Z,4.78
2018-08-23T08:30:56.857Z,4.93
2018-08-23T08:33:25.669Z,4.42
2018-08-23T08:36:01.071Z,4.53
2018-08-23T08:38:29.955Z,4.27
2018-08-23T08:40:58.577Z,4.50
2018-08-23T08:43:27.450Z,4.10
2018-08-23T08:45:58.053Z,4.80
2018-08-23T08:48:32.417Z,5.20
2018-08-23T08:51:32.239Z,5.10
2018-08-23T08:54:02.654Z,4.23
2018-08-23T08:56:37.806Z,4.50
2018-08-23T08:59:06.377Z,4.50
2018-08-23T09:01:34.845Z,4.97
2018-08-23T09:04:03.887Z,4.23
2018-08-23T09:07:54.789Z,4.40
2018-08-23T09:10:23.246Z,4.03
2018-08-23T09:12:51.953Z,4.20
2018-08-23T09:15:21.438Z,3.60
2018-08-23T09:17:52.773Z,3.33
2018-08-23T09:20:21.871Z,3.75
2018-08-23T09:22:53.882Z,4.50
2018-08-23T09:25:32.706Z,4.17
2018-08-23T09:28:01.809Z,4.00
2018-08-23T09:30:31.742Z,3.90
2018-08-23T09:33:06.587Z,3.87
2018-08-23T09:35:35.467Z,3.83
2018-08-23T09:38:11.150Z,4.40
2018-08-23T09:40:39.700Z,4.30
2018-08-23T09:43:08.249Z,4.30
2018-08-23T09:45:37.588Z,4.00
2018-08-23T09:48:06.353Z,3.57
2018-08-23T09:50:34.924Z,3.50
2018-08-23T09:53:10.101Z,3.85
2018-08-23T09:55:39.394Z,3.47
2018-08-23T09:58:12.788Z,3.30
2018-08-23T10:00:46.663Z,3.73
2018-08-23T10:08:25.369Z,3.07
2018-08-23T10:10:59.644Z,3.70
2018-08-23T10:13:33.567Z,3.65
2018-08-23T10:16:07.652Z,4.07
2018-08-23T10:18:41.502Z,4.00
2018-08-23T10:21:10.607Z,4.30
2018-08-23T10:23:39.090Z,4.13
2018-08-23T10:26:23.654Z,4.63
2018-08-23T10:28:52.578Z,4.93
2018-08-23T10:31:21.096Z,4.97
2018-08-23T10:33:49.632Z,5.20
2018-08-23T10:36:18.139Z,4.70
2018-08-23T10:38:47.079Z,5.13
2018-08-23T10:41:17.453Z,5.40
2018-08-23T10:43:48.209Z,5.17
2018-08-23T10:46:19.481Z,5.98
2018-08-23T10:48:47.932Z,5.53
2018-08-23T10:51:17.471Z,5.55
2018-08-23T10:53:45.974Z,6.40
2018-08-23T11:01:08.398Z,5.70
2018-08-23T11:03:36.875Z,6.50
2018-08-23T11:06:05.658Z,6.00
2018-08-23T11:08:36.514Z,6.15
2018-08-23T11:11:10.781Z,5.70
2018-08-23T11:13:44.701Z,5.40
2018-08-23T11:16:18.711Z,6.17
2018-08-23T11:18:53.801Z,5.83
2018-08-23T11:21:22.335Z,5.70
2018-08-23T11:23:50.829Z,6.10
2018-08-23T11:26:26.561Z,5.97
2018-08-23T11:28:55.536Z,5.70
2018-08-23T11:31:30.241Z,6.15
2018-08-23T11:33:58.714Z,5.80
2018-08-23T11:36:27.222Z,6.57
2018-08-23T11:38:55.713Z,6.20
2018-08-23T11:41:24.193Z,5.65
2018-08-23T11:43:52.666Z,6.30
2018-08-23T11:46:22.535Z,6.08
2018-08-23T11:48:51.259Z,6.80
2018-08-23T11:51:20.182Z,6.30
2018-08-23T11:53:49.422Z,6.30
2018-08-23T11:56:17.955Z,6.10
2018-08-23T11:58:46.498Z,6.30
2018-08-23T12:06:11.305Z,6.10
2018-08-23T12:08:42.846Z,6.93
2018-08-23T12:11:11.441Z,6.40
2018-08-23T12:13:43.135Z,6.93
2018-08-23T12:16:11.621Z,7.50
2018-08-23T12:18:40.153Z,8.47
2018-08-23T12:21:08.698Z,7.77
2018-08-23T12:23:37.231Z,7.30
2018-08-23T12:26:05.830Z,7.90
2018-08-23T12:28:40.389Z,7.25
2018-08-23T12:31:09.565Z,7.33
2018-08-23T12:33:38.021Z,7.73
2018-08-23T12:36:08.131Z,7.00
2018-08-23T12:38:41.891Z,7.07
2018-08-23T12:41:16.257Z,6.80
2018-08-23T12:43:46.459Z,6.80
2018-08-23T12:51:24.233Z,7.13
2018-08-23T12:53:52.769Z,7.40
2018-08-23T12:56:21.322Z,7.00
2018-08-23T12:58:49.817Z,6.70
2018-08-23T13:01:18.360Z,8.20
2018-08-23T13:03:46.867Z,6.57
2018-08-23T13:11:11.750Z,7.40
2018-08-23T13:13:40.250Z,7.60
2018-08-23T13:16:08.768Z,6.90
2018-08-23T13:18:37.365Z,6.67
2018-08-23T13:21:06.069Z,7.57
2018-08-23T13:23:34.554Z,8.80
2018-08-23T13:26:03.155Z,10.07
2018-08-23T13:28:31.725Z,9.40
2018-08-23T13:31:00.373Z,8.10
2018-08-23T13:33:30.071Z,9.40
2018-08-23T13:35:58.566Z,9.40
2018-08-23T13:38:27.146Z,9.20
2018-08-23T13:40:55.719Z,8.30
2018-08-23T13:43:24.782Z,10.57
2018-08-23T13:45:53.256Z,8.43
2018-08-23T13:48:22.150Z,9.90
2018-08-23T13:50:50.635Z,10.40
2018-08-23T13:53:19.290Z,8.20
2018-08-23T13:55:48.193Z,6.60
2018-08-23T13:58:17.429Z,6.60
2018-08-23T14:00:46.118Z,6.40
2018-08-23T14:08:09.462Z,7.23
2018-08-23T14:10:37.953Z,8.60
2018-08-23T14:13:06.466Z,9.50
2018-08-23T14:15:40.882Z,8.67
2018-08-23T14:18:09.429Z,8.27
2018-08-23T14:20:38.328Z,8.37
2018-08-23T14:23:06.881Z,8.23
2018-08-23T14:25:36.055Z,8.23
2018-08-23T14:28:04.859Z,8.20
2018-08-23T14:30:33.826Z,7.97
2018-08-23T14:33:02.361Z,7.63
2018-08-23T14:35:32.055Z,7.67
2018-08-23T14:38:01.390Z,7.80
2018-08-23T14:40:30.043Z,8.10
2018-08-23T14:42:58.583Z,7.90
2018-08-23T14:45:30.650Z,9.13
2018-08-23T14:48:04.678Z,9.30
2018-08-23T14:50:34.342Z,9.27
2018-08-23T14:53:03.118Z,7.40
2018-08-23T14:55:37.235Z,8.33
2018-08-23T14:58:05.943Z,8.00
2018-08-23T15:00:35.774Z,8.63
2018-08-23T15:03:04.316Z,8.90
2018-08-23T15:05:32.894Z,9.63
2018-08-23T15:08:01.398Z,9.40
2018-08-23T15:10:29.918Z,9.83
2018-08-23T15:12:58.454Z,10.25
2018-08-23T15:15:33.176Z,11.50
2018-08-23T15:18:01.654Z,11.47
2018-08-23T15:20:30.198Z,11.35
2018-08-23T15:22:58.716Z,8.10
2018-08-23T15:25:27.792Z,8.33
2018-08-23T15:27:56.273Z,9.20
2018-08-23T15:30:25.484Z,11.20
2018-08-23T15:32:54.070Z,11.80
2018-08-23T15:35:23.040Z,12.60
2018-08-23T15:37:55.031Z,15.37
2018-08-23T15:40:23.624Z,13.80
2018-08-23T15:42:51.975Z,10.40
2018-08-23T15:45:20.971Z,13.50
2018-08-23T15:47:49.728Z,10.63
2018-08-23T15:50:18.382Z,12.70
2018-08-23T15:52:47.030Z,10.30
2018-08-23T16:00:10.421Z,8.20
2018-08-23T16:02:39.051Z,11.00
2018-08-23T16:05:07.560Z,11.68
2018-08-23T16:07:36.298Z,13.40
2018-08-23T16:10:06.602Z,12.77
2018-08-23T16:12:35.352Z,12.50
2018-08-23T16:15:09.167Z,14.97
2018-08-23T16:17:42.960Z,18.20
2018-08-23T16:20:17.133Z,18.07
2018-08-23T16:22:45.923Z,18.90
2018-08-23T16:30:07.446Z,17.63
2018-08-23T16:32:36.824Z,17.33
2018-08-23T16:35:05.362Z,14.20
2018-08-23T16:37:35.041Z,16.35
2018-08-23T16:40:04.321Z,17.10
2018-08-23T16:42:33.004Z,15.60
2018-08-23T16:45:01.809Z,16.35
2018-08-23T16:47:30.326Z,15.83
2018-08-23T16:49:58.846Z,16.37
2018-08-23T16:52:27.341Z,15.03
2018-08-23T16:54:55.953Z,14.57
2018-08-23T16:57:24.727Z,16.20
2018-08-23T16:59:53.291Z,15.93
2018-08-23T17:02:22.246Z,15.38
2018-08-23T17:04:50.726Z,15.17
2018-08-23T17:07:19.257Z,16.80
2018-08-23T17:09:47.728Z,16.70
2018-08-23T17:12:17.390Z,17.25
2018-08-23T17:14:45.970Z,14.37
2018-08-23T17:22:09.843Z,14.80
2018-08-23T17:24:38.635Z,13.33
2018-08-23T17:27:07.029Z,13.20
2018-08-23T17:29:35.532Z,13.20
2018-08-23T17:32:04.050Z,14.37
2018-08-23T17:34:32.559Z,13.17
2018-08-23T17:37:01.124Z,13.50
2018-08-23T17:39:29.658Z,11.97
2018-08-23T17:41:58.978Z,12.60
2018-08-23T17:44:27.773Z,12.50
2018-08-23T17:46:56.269Z,12.83
2018-08-23T17:49:24.801Z,12.83
2018-08-23T17:51:53.323Z,14.77
2018-08-23T17:54:21.781Z,16.87
2018-08-23T17:56:50.273Z,14.83
2018-08-23T17:59:18.770Z,15.10
2018-08-23T18:01:47.262Z,15.73
2018-08-23T18:09:11.245Z,13.50
2018-08-23T18:11:40.273Z,13.03
2018-08-23T18:14:09.544Z,14.40
2018-08-23T18:16:43.375Z,14.70
2018-08-23T18:19:12.775Z,13.17
2018-08-23T18:21:42.231Z,13.00
2018-08-23T18:24:10.940Z,13.37
2018-08-23T18:26:39.389Z,13.43
2018-08-23T18:29:07.894Z,12.80
2018-08-23T18:31:37.041Z,13.03
2018-08-23T18:34:05.698Z,13.00
2018-08-23T18:36:34.162Z,12.78
2018-08-23T18:39:02.722Z,12.23
2018-08-23T18:41:31.841Z,12.20
2018-08-23T18:44:00.995Z,12.40
2018-08-23T18:46:29.602Z,12.23
2018-08-23T18:48:58.935Z,11.87
2018-08-23T18:51:29.173Z,11.73
2018-08-23T18:53:58.270Z,12.40
2018-08-23T18:56:27.230Z,11.40
2018-08-23T18:58:56.545Z,11.40
2018-08-23T19:01:25.126Z,11.70
2018-08-23T19:03:54.079Z,11.50
2018-08-23T19:06:28.202Z,10.27
2018-08-23T19:08:56.910Z,9.97
2018-08-23T19:11:25.519Z,11.25
2018-08-23T19:13:54.093Z,10.93
2018-08-23T19:16:27.898Z,11.20
2018-08-23T19:18:56.614Z,10.43
2018-08-23T19:21:25.181Z,10.73
2018-08-23T19:23:53.654Z,11.20
2018-08-23T19:26:22.158Z,8.80
2018-08-23T19:28:50.633Z,9.50
2018-08-23T19:31:19.481Z,9.60
2018-08-23T19:33:48.806Z,9.70
2018-08-23T19:36:17.412Z,9.03
2018-08-23T19:38:45.865Z,9.90
2018-08-23T19:46:14.033Z,9.33
2018-08-23T19:48:43.061Z,8.17
2018-08-23T19:51:11.557Z,9.37
2018-08-23T19:53:40.125Z,8.70
2018-08-23T19:56:08.649Z,9.00
2018-08-23T19:58:37.278Z,8.40
2018-08-23T20:01:06.406Z,7.83
2018-08-23T20:03:34.912Z,8.20
2018-08-23T20:06:03.507Z,8.20
2018-08-23T20:08:32.186Z,7.60
2018-08-23T20:11:00.764Z,8.07
2018-08-23T20:13:29.336Z,8.33
2018-08-23T20:15:58.236Z,7.53
2018-08-23T20:18:26.779Z,8.30
2018-08-23T20:20:56.532Z,8.70
2018-08-23T20:23:25.078Z,7.80
2018-08-23T20:25:53.541Z,7.60
2018-08-23T20:28:22.166Z,9.03
2018-08-23T20:30:50.717Z,7.53
2018-08-23T20:33:19.335Z,8.30
2018-08-23T20:35:47.978Z,8.20
2018-08-23T20:38:17.549Z,9.93
2018-08-23T20:40:46.070Z,8.70
2018-08-23T20:48:08.754Z,8.33
2018-08-23T20:50:37.402Z,8.63
2018-08-23T20:53:05.989Z,8.97
2018-08-23T20:55:34.512Z,9.43
2018-08-23T20:58:03.048Z,9.47
2018-08-23T21:00:31.643Z,10.27
2018-08-23T21:03:00.133Z,9.37
2018-08-23T21:05:28.621Z,10.00
2018-08-23T21:07:57.774Z,9.63
2018-08-23T21:10:26.310Z,9.80
2018-08-23T21:12:54.794Z,10.20
2018-08-23T21:15:23.961Z,9.47
2018-08-23T21:17:52.531Z,10.07
2018-08-23T21:20:21.042Z,10.13
2018-08-23T21:22:49.548Z,9.40
2018-08-23T21:25:18.246Z,9.03
2018-08-23T21:27:46.723Z,8.93
2018-08-23T21:36:49.432Z,8.40
2018-08-23T21:39:17.953Z,9.53
2018-08-23T21:41:48.253Z,8.95
2018-08-23T21:44:17.489Z,9.48
2018-08-23T21:46:45.970Z,10.30
2018-08-23T21:54:10.761Z,10.17
2018-08-23T21:56:39.245Z,10.17
2018-08-23T21:59:07.811Z,8.90
2018-08-23T22:01:36.338Z,9.90
2018-08-23T22:04:04.854Z,10.40
2018-08-23T22:06:33.357Z,10.07
2018-08-23T22:09:01.902Z,10.00
2018-08-23T22:11:30.462Z,11.37
2018-08-23T22:13:59.558Z,9.60
2018-08-23T22:16:28.411Z,10.70
2018-08-23T22:18:56.889Z,10.30
2018-08-23T22:21:25.390Z,10.40
2018-08-23T22:23:53.925Z,9.90
2018-08-23T22:26:23.658Z,9.90
2018-08-23T22:28:52.147Z,9.40
2018-08-23T22:31:20.669Z,10.82
2018-08-23T22:33:49.661Z,10.40
2018-08-23T22:36:18.181Z,10.33
2018-08-23T22:38:47.070Z,9.85
2018-08-23T22:46:09.209Z,10.27
2018-08-23T22:48:37.672Z,9.67
2018-08-23T22:51:07.648Z,11.20
2018-08-23T22:53:36.100Z,9.80
2018-08-23T22:56:04.570Z,9.67
2018-08-23T22:58:33.071Z,11.30
2018-08-23T23:01:01.598Z,10.20
2018-08-23T23:03:35.302Z,9.90
2018-08-23T23:06:03.862Z,10.27
2018-08-23T23:08:32.338Z,9.87
2018-08-23T23:11:00.828Z,9.90
2018-08-23T23:13:29.337Z,9.70
2018-08-23T23:15:57.802Z,11.10
2018-08-23T23:18:26.290Z,10.03
2018-08-23T23:20:54.833Z,10.40
2018-08-23T23:23:24.232Z,9.77
2018-08-23T23:25:52.872Z,10.67
2018-08-23T23:28:21.460Z,10.20
2018-08-23T23:30:50.193Z,10.10
2018-08-23T23:33:18.681Z,10.40
2018-08-23T23:35:47.186Z,9.43
2018-08-23T23:38:17.386Z,10.05
2018-08-23T23:40:45.854Z,10.20
2018-08-23T23:48:12.986Z,11.10
2018-08-23T23:50:41.466Z,10.68
2018-08-23T23:53:11.915Z,10.60
2018-08-23T23:55:40.426Z,10.00
2018-08-23T23:58:08.893Z,9.50
